Time;durP1;ratioP1;P1;durP2;ratioP2;P2;SDS_P1;SDS_P2;PMS_P1;PMS_P2;Temp;Humidity;BMP_temperature;BMP_pressure;BME280_temperature;BME280_humidity;BME280_pressure;Samples;Min_cycle;Max_cycle;Signal;HPM_P1;HPM_P2
2023/03/23 00:01:02;;;;;;;10.60;6.57;;;;;;;;;;4989605;28;20043;-75
2023/03/23 00:03:38;;;;;;;10.25;6.78;;;;;;;;;;4956738;28;20098;-75
2023/03/23 00:06:06;;;;;;;;;;;;;;;;;;4956620;28;20078;-75
2023/03/23 00:08:37;;;;;;;10.27;6.38;;;;;;;;;;4956403;28;19922;-75
2023/03/23 00:11:03;;;;;;;9.95;6.47;;;;;;;;;;4956032;28;20074;-75
2023/03/23 00:13:30;;;;;;;11.70;6.72;;;;;;;;;;4956466;28;20091;-75
2023/03/23 00:15:57;;;;;;;8.93;5.65;;;;;;;;;;4955388;28;20074;-75
2023/03/23 00:18:23;;;;;;;8.90;5.18;;;;;;;;;;4955475;28;20050;-76
2023/03/23 00:20:50;;;;;;;8.60;5.10;;;;;;;;;;4955024;28;20053;-76
2023/03/23 00:23:21;;;;;;;8.20;5.50;;;;;;;;;;4956637;28;20388;-75
2023/03/23 00:25:48;;;;;;;7.55;5.63;;;;;;;;;;4956237;28;20102;-75
2023/03/23 00:28:15;;;;;;;7.85;5.13;;;;;;;;;;4955257;28;20061;-76
2023/03/23 00:30:41;;;;;;;8.60;5.55;;;;;;;;;;4942519;28;20075;-76
2023/03/23 00:33:08;;;;;;;11.43;7.20;;;;;;;;;;4953527;29;20057;-76
2023/03/23 00:35:35;;;;;;;11.52;7.60;;;;;;;;;;4955377;28;20039;-76
2023/03/23 00:38:01;;;;;;;10.07;7.72;;;;;;;;;;4955182;28;20043;-76
2023/03/23 00:40:28;;;;;;;11.77;8.20;;;;;;;;;;4955559;28;20094;-76
2023/03/23 00:42:54;;;;;;;14.40;9.55;;;;;;;;;;4955973;28;20538;-76
2023/03/23 00:45:20;;;;;;;15.88;10.23;;;;;;;;;;4956061;28;20051;-77
2023/03/23 00:47:46;;;;;;;17.13;11.05;;;;;;;;;;4986470;28;20086;-78
2023/03/23 00:50:17;;;;;;;19.85;13.57;;;;;;;;;;4955758;28;20518;-77
2023/03/23 00:52:43;;;;;;;22.35;14.60;;;;;;;;;;4955309;28;20124;-77
2023/03/23 00:55:09;;;;;;;21.23;14.30;;;;;;;;;;4986415;28;20054;-77
2023/03/23 00:57:35;;;;;;;24.75;15.55;;;;;;;;;;4955336;28;20054;-77
2023/03/23 01:00:03;;;;;;;25.65;17.13;;;;;;;;;;4939335;29;20126;-77
2023/03/23 01:02:29;;;;;;;28.30;17.90;;;;;;;;;;4954942;28;20457;-77
2023/03/23 01:04:56;;;;;;;28.02;19.25;;;;;;;;;;4955210;28;20039;-77
2023/03/23 01:07:23;;;;;;;27.95;18.65;;;;;;;;;;4955136;29;20052;-77
2023/03/23 01:09:53;;;;;;;27.27;17.20;;;;;;;;;;4955214;29;20483;-77
2023/03/23 01:12:19;;;;;;;24.50;16.65;;;;;;;;;;4954970;28;20089;-77
2023/03/23 01:14:45;;;;;;;22.58;15.90;;;;;;;;;;4955120;28;20047;-77
2023/03/23 01:17:11;;;;;;;23.88;16.20;;;;;;;;;;4955141;28;20043;-77
2023/03/23 01:19:37;;;;;;;19.05;13.82;;;;;;;;;;4955017;28;20554;-77
2023/03/23 01:22:03;;;;;;;16.73;12.50;;;;;;;;;;4954323;28;20134;-77
2023/03/23 01:24:29;;;;;;;16.02;11.35;;;;;;;;;;4955170;28;20054;-77
2023/03/23 01:26:55;;;;;;;17.60;11.93;;;;;;;;;;4955100;28;20050;-77
2023/03/23 01:29:21;;;;;;;16.17;11.75;;;;;;;;;;4954902;28;20047;-77
2023/03/23 01:31:47;;;;;;;15.90;11.13;;;;;;;;;;4954436;28;20051;-77
2023/03/23 01:34:13;;;;;;;19.48;11.30;;;;;;;;;;4947871;28;20043;-77
2023/03/23 01:36:40;;;;;;;16.20;11.35;;;;;;;;;;4983300;28;20043;-77
2023/03/23 01:39:06;;;;;;;14.18;11.65;;;;;;;;;;4953743;29;20047;-77
2023/03/23 01:41:33;;;;;;;14.63;11.43;;;;;;;;;;4958572;28;20050;-77
2023/03/23 01:44:04;;;;;;;16.83;11.68;;;;;;;;;;4958715;28;20106;-77
2023/03/23 01:46:32;;;;;;;17.77;12.63;;;;;;;;;;4953554;28;20044;-76
2023/03/23 01:49:00;;;;;;;16.20;11.57;;;;;;;;;;4947811;29;20055;-76
2023/03/23 01:51:27;;;;;;;14.63;10.10;;;;;;;;;;4958851;28;20122;-76
2023/03/23 01:53:56;;;;;;;13.98;9.63;;;;;;;;;;4958186;28;20046;-76
2023/03/23 01:56:24;;;;;;;13.52;9.15;;;;;;;;;;4958418;28;20078;-76
2023/03/23 01:58:51;;;;;;;13.85;9.02;;;;;;;;;;4958686;28;20054;-76
2023/03/23 02:01:18;;;;;;;14.93;9.45;;;;;;;;;;4958083;28;20043;-77
2023/03/23 02:03:47;;;;;;;16.77;10.13;;;;;;;;;;4957829;28;21972;-77
2023/03/23 02:06:14;;;;;;;17.50;10.90;;;;;;;;;;4957996;28;20533;-77
2023/03/23 02:08:42;;;;;;;14.95;9.98;;;;;;;;;;4958681;29;20134;-77
2023/03/23 02:11:12;;;;;;;15.82;9.52;;;;;;;;;;4958628;28;20047;-77
2023/03/23 02:13:38;;;;;;;13.65;9.38;;;;;;;;;;4958195;28;20043;-77
2023/03/23 02:16:08;;;;;;;14.95;9.48;;;;;;;;;;4989110;28;20039;-77
2023/03/23 02:18:37;;;;;;;13.50;8.27;;;;;;;;;;4947622;28;20530;-77
2023/03/23 02:21:21;;;;;;;11.60;8.80;;;;;;;;;;4954146;29;20502;-77
2023/03/23 02:23:50;;;;;;;14.07;8.82;;;;;;;;;;4939189;29;20539;-77
2023/03/23 02:26:16;;;;;;;12.23;8.18;;;;;;;;;;4940663;29;20051;-77
2023/03/23 02:29:01;;;;;;;11.55;7.60;;;;;;;;;;4958012;28;20047;-76
2023/03/23 02:31:46;;;;;;;12.80;8.15;;;;;;;;;;4958465;28;20043;-73
2023/03/23 02:34:20;;;;;;;10.13;7.20;;;;;;;;;;4984183;28;20075;-73
2023/03/23 02:36:59;;;;;;;11.13;7.47;;;;;;;;;;4957266;29;20106;-74
2023/03/23 02:39:29;;;;;;;10.15;7.32;;;;;;;;;;4957381;28;20090;-76
2023/03/23 02:41:57;;;;;;;12.10;6.80;;;;;;;;;;4957848;28;20051;-76
2023/03/23 02:44:25;;;;;;;11.65;7.07;;;;;;;;;;4957563;28;20130;-76
2023/03/23 02:46:52;;;;;;;9.73;6.70;;;;;;;;;;4960480;28;20055;-76
2023/03/23 02:49:18;;;;;;;13.88;7.38;;;;;;;;;;4957607;28;20462;-76
2023/03/23 02:51:46;;;;;;;9.57;6.50;;;;;;;;;;4957314;28;20501;-76
2023/03/23 02:54:13;;;;;;;12.15;6.75;;;;;;;;;;4957590;28;20043;-76
2023/03/23 02:56:40;;;;;;;10.32;6.30;;;;;;;;;;4957721;28;20098;-77
2023/03/23 02:59:06;;;;;;;8.75;6.43;;;;;;;;;;4957669;28;20089;-77
2023/03/23 03:01:32;;;;;;;10.95;6.32;;;;;;;;;;4957719;28;20050;-77
2023/03/23 03:04:00;;;;;;;12.65;6.15;;;;;;;;;;4957287;28;20047;-77
2023/03/23 03:06:29;;;;;;;10.25;6.10;;;;;;;;;;4956428;28;20569;-77
2023/03/23 03:09:03;;;;;;;12.50;5.97;;;;;;;;;;4941891;29;20079;-77
2023/03/23 03:11:30;;;;;;;10.20;5.60;;;;;;;;;;4944957;29;20056;-77
2023/03/23 03:14:02;;;;;;;8.55;6.13;;;;;;;;;;4947513;29;20039;-77
2023/03/23 03:16:30;;;;;;;12.65;5.57;;;;;;;;;;4957403;28;20106;-77
2023/03/23 03:19:05;;;;;;;11.35;5.90;;;;;;;;;;4956941;28;20378;-77
2023/03/23 03:21:34;;;;;;;13.02;6.03;;;;;;;;;;4956954;28;20059;-78
2023/03/23 03:24:02;;;;;;;11.90;6.13;;;;;;;;;;4957470;28;20169;-78
2023/03/23 03:26:28;;;;;;;11.50;6.00;;;;;;;;;;4956883;28;20076;-78
2023/03/23 03:28:55;;;;;;;7.65;5.70;;;;;;;;;;4987452;28;20047;-78
2023/03/23 03:31:24;;;;;;;10.65;5.28;;;;;;;;;;4946695;28;20050;-78
2023/03/23 03:33:50;;;;;;;12.23;5.82;;;;;;;;;;4937707;29;20122;-76
2023/03/23 03:36:25;;;;;;;11.40;5.80;;;;;;;;;;4955601;29;20047;-75
2023/03/23 03:38:52;;;;;;;9.52;5.45;;;;;;;;;;4987519;28;20454;-75
2023/03/23 03:41:18;;;;;;;10.48;5.03;;;;;;;;;;4956682;28;20047;-74
2023/03/23 03:43:44;;;;;;;9.57;5.22;;;;;;;;;;4988244;28;20130;-76
2023/03/23 03:46:10;;;;;;;9.13;4.57;;;;;;;;;;4956415;28;20150;-75
2023/03/23 03:48:36;;;;;;;9.38;4.20;;;;;;;;;;4956881;28;20058;-76
2023/03/23 03:51:03;;;;;;;10.07;3.75;;;;;;;;;;4956271;28;20047;-75
2023/03/23 03:53:30;;;;;;;8.20;3.60;;;;;;;;;;4955127;28;20086;-75
2023/03/23 03:55:59;;;;;;;8.68;3.83;;;;;;;;;;4975489;28;20047;-75
2023/03/23 03:58:31;;;;;;;8.57;3.72;;;;;;;;;;4964625;28;20055;-75
2023/03/23 04:00:58;;;;;;;8.90;3.80;;;;;;;;;;4948105;28;20039;-75
2023/03/23 04:03:25;;;;;;;6.88;3.50;;;;;;;;;;4955971;28;20039;-75
2023/03/23 04:05:52;;;;;;;6.38;3.40;;;;;;;;;;4956100;28;20055;-76
2023/03/23 04:08:18;;;;;;;8.48;4.03;;;;;;;;;;4956130;28;20102;-76
2023/03/23 04:10:45;;;;;;;8.15;4.80;;;;;;;;;;4956064;28;20044;-76
2023/03/23 04:13:11;;;;;;;8.13;4.63;;;;;;;;;;4956043;28;20055;-76
2023/03/23 04:15:38;;;;;;;8.13;4.53;;;;;;;;;;4955778;28;20122;-76
2023/03/23 04:18:05;;;;;;;6.43;3.88;;;;;;;;;;4955781;28;20055;-76
2023/03/23 04:20:31;;;;;;;7.70;3.38;;;;;;;;;;4953803;28;20095;-76
2023/03/23 04:22:57;;;;;;;10.80;3.63;;;;;;;;;;4935625;29;20051;-76
2023/03/23 04:25:23;;;;;;;8.85;3.20;;;;;;;;;;4952400;29;20094;-76
2023/03/23 04:27:53;;;;;;;11.77;4.18;;;;;;;;;;4955627;28;20498;-76
2023/03/23 04:30:24;;;;;;;9.77;3.53;;;;;;;;;;4954983;28;20130;-77
2023/03/23 04:32:51;;;;;;;10.35;4.22;;;;;;;;;;4945858;28;20510;-77
2023/03/23 04:35:18;;;;;;;8.18;3.30;;;;;;;;;;4935817;29;20054;-77
2023/03/23 04:37:45;;;;;;;8.75;3.40;;;;;;;;;;4951268;29;20098;-77
2023/03/23 04:40:12;;;;;;;9.82;3.72;;;;;;;;;;4951651;28;20513;-77
2023/03/23 04:42:38;;;;;;;8.73;3.78;;;;;;;;;;4962336;28;20047;-77
2023/03/23 04:45:06;;;;;;;10.57;3.55;;;;;;;;;;4948857;28;20134;-77
2023/03/23 04:47:40;;;;;;;17.33;4.30;;;;;;;;;;4940301;28;20043;-77
2023/03/23 04:50:10;;;;;;;12.43;3.67;;;;;;;;;;4969358;28;20062;-77
2023/03/23 04:52:37;;;;;;;11.50;3.40;;;;;;;;;;4955172;28;20072;-77
2023/03/23 04:55:04;;;;;;;16.23;3.40;;;;;;;;;;4954723;28;20079;-77
2023/03/23 04:57:31;;;;;;;10.60;3.60;;;;;;;;;;4954656;28;20058;-77
2023/03/23 04:59:57;;;;;;;11.45;3.85;;;;;;;;;;4954565;28;20142;-77
2023/03/23 05:02:23;;;;;;;14.57;3.35;;;;;;;;;;4954608;28;20050;-77
2023/03/23 05:04:49;;;;;;;14.55;3.42;;;;;;;;;;4954588;28;20490;-77
2023/03/23 05:07:15;;;;;;;15.80;3.90;;;;;;;;;;4954640;28;20047;-77
2023/03/23 05:09:41;;;;;;;14.07;3.63;;;;;;;;;;4953630;28;20054;-77
2023/03/23 05:12:09;;;;;;;12.43;3.85;;;;;;;;;;4955385;28;20110;-77
2023/03/23 05:14:36;;;;;;;18.33;4.53;;;;;;;;;;4955017;28;20047;-77
2023/03/23 05:17:02;;;;;;;9.77;3.10;;;;;;;;;;4954297;28;20359;-77
2023/03/23 05:19:29;;;;;;;11.95;3.88;;;;;;;;;;4954253;28;20463;-77
2023/03/23 05:22:02;;;;;;;20.02;4.05;;;;;;;;;;4916491;28;1111392;-77
2023/03/23 05:24:31;;;;;;;14.07;3.78;;;;;;;;;;4955341;28;20083;-77
2023/03/23 05:26:57;;;;;;;12.32;4.07;;;;;;;;;;4955413;28;20056;-77
2023/03/23 05:29:26;;;;;;;16.52;4.13;;;;;;;;;;4955713;28;20047;-77
2023/03/23 05:31:55;;;;;;;17.13;4.30;;;;;;;;;;4955348;28;20050;-77
2023/03/23 05:34:21;;;;;;;17.77;4.65;;;;;;;;;;4936211;29;20051;-77
2023/03/23 05:36:47;;;;;;;16.27;4.10;;;;;;;;;;4936454;29;20094;-77
2023/03/23 05:39:14;;;;;;;18.00;4.70;;;;;;;;;;4936185;29;20047;-77
2023/03/23 05:41:43;;;;;;;13.65;5.32;;;;;;;;;;4936092;29;20047;-77
2023/03/23 05:44:10;;;;;;;21.65;4.22;;;;;;;;;;4934715;29;20052;-77
2023/03/23 05:46:36;;;;;;;20.92;4.50;;;;;;;;;;4936024;29;20095;-77
2023/03/23 05:49:02;;;;;;;14.70;3.97;;;;;;;;;;4953972;29;20462;-77
2023/03/23 05:51:28;;;;;;;13.95;4.60;;;;;;;;;;4954273;29;20102;-76
2023/03/23 05:53:54;;;;;;;18.52;4.47;;;;;;;;;;4953818;28;20043;-76
2023/03/23 05:56:23;;;;;;;18.45;4.63;;;;;;;;;;4954598;28;20059;-77
2023/03/23 05:58:49;;;;;;;17.30;4.75;;;;;;;;;;4936603;28;20047;-77
2023/03/23 06:01:15;;;;;;;17.88;4.50;;;;;;;;;;4942537;29;20043;-77
2023/03/23 06:03:42;;;;;;;18.05;4.45;;;;;;;;;;4951762;29;20062;-77
2023/03/23 06:06:11;;;;;;;17.33;4.30;;;;;;;;;;4951575;29;20049;-77
2023/03/23 06:08:37;;;;;;;17.98;4.28;;;;;;;;;;4952256;29;20407;-77
2023/03/23 06:11:03;;;;;;;13.48;3.55;;;;;;;;;;4954344;28;20412;-77
2023/03/23 06:13:29;;;;;;;16.70;3.80;;;;;;;;;;4954961;28;20177;-77
2023/03/23 06:15:59;;;;;;;11.57;3.88;;;;;;;;;;4954756;28;20059;-77
2023/03/23 06:18:26;;;;;;;9.63;2.60;;;;;;;;;;4957930;28;20070;-77
2023/03/23 06:20:53;;;;;;;8.77;3.03;;;;;;;;;;4997707;28;20054;-77
2023/03/23 06:23:20;;;;;;;11.70;2.83;;;;;;;;;;4966068;28;20083;-77
2023/03/23 06:25:46;;;;;;;6.47;2.22;;;;;;;;;;4958876;28;20083;-77
2023/03/23 06:28:12;;;;;;;11.93;2.75;;;;;;;;;;4988841;28;20078;-77
2023/03/23 06:30:38;;;;;;;7.07;2.47;;;;;;;;;;4959086;28;20043;-78
2023/03/23 06:33:05;;;;;;;8.10;2.60;;;;;;;;;;4943952;28;20059;-77
2023/03/23 06:35:32;;;;;;;7.57;2.25;;;;;;;;;;4970846;28;20066;-77
2023/03/23 06:38:01;;;;;;;7.82;2.50;;;;;;;;;;4938753;29;20054;-78
2023/03/23 06:40:28;;;;;;;6.97;1.90;;;;;;;;;;4941558;29;20048;-77
2023/03/23 06:42:54;;;;;;;5.95;2.20;;;;;;;;;;4938707;29;20364;-77
2023/03/23 06:45:20;;;;;;;4.68;2.20;;;;;;;;;;4939570;29;20044;-77
2023/03/23 06:47:48;;;;;;;6.80;2.40;;;;;;;;;;4955288;29;20058;-77
2023/03/23 06:50:15;;;;;;;6.25;2.58;;;;;;;;;;4957797;28;20047;-77
2023/03/23 06:52:41;;;;;;;8.07;2.63;;;;;;;;;;4988694;28;20070;-77
2023/03/23 06:55:08;;;;;;;11.15;3.15;;;;;;;;;;4957775;28;20039;-77
2023/03/23 06:57:34;;;;;;;9.50;3.03;;;;;;;;;;4957466;28;20047;-77
2023/03/23 07:00:00;;;;;;;13.40;3.40;;;;;;;;;;4957228;28;20047;-80
2023/03/23 07:02:26;;;;;;;13.30;3.28;;;;;;;;;;4957737;28;20053;-77
2023/03/23 07:04:53;;;;;;;9.65;3.88;;;;;;;;;;4957302;28;20043;-77
2023/03/23 07:07:20;;;;;;;13.68;4.13;;;;;;;;;;4957393;28;20106;-77
2023/03/23 07:09:46;;;;;;;13.20;3.80;;;;;;;;;;4958164;28;20102;-78
2023/03/23 07:12:12;;;;;;;13.25;3.85;;;;;;;;;;4957278;28;20490;-77
2023/03/23 07:14:38;;;;;;;20.55;4.53;;;;;;;;;;4957780;28;20459;-77
2023/03/23 07:17:04;;;;;;;18.58;4.38;;;;;;;;;;4956823;28;20110;-76
2023/03/23 07:19:30;;;;;;;13.73;3.90;;;;;;;;;;4957193;28;20047;-76
2023/03/23 07:21:56;;;;;;;13.95;3.75;;;;;;;;;;4956784;28;20356;-77
2023/03/23 07:24:23;;;;;;;16.77;4.18;;;;;;;;;;4957169;28;20052;-77
2023/03/23 07:26:49;;;;;;;17.55;4.82;;;;;;;;;;4957819;28;20046;-79
2023/03/23 07:29:15;;;;;;;22.45;5.18;;;;;;;;;;4959626;28;20043;-79
2023/03/23 07:31:42;;;;;;;21.40;5.07;;;;;;;;;;4961428;28;20515;-79
2023/03/23 07:34:08;;;;;;;20.00;5.22;;;;;;;;;;4961999;28;20051;-79
2023/03/23 07:36:37;;;;;;;23.60;5.43;;;;;;;;;;4990683;28;20588;-79
2023/03/23 07:39:05;;;;;;;20.67;5.28;;;;;;;;;;4961193;28;20450;-79
2023/03/23 07:41:31;;;;;;;26.50;5.93;;;;;;;;;;4962026;28;20102;-79
2023/03/23 07:43:57;;;;;;;29.30;6.30;;;;;;;;;;4957683;28;20470;-78
2023/03/23 07:46:24;;;;;;;24.67;6.50;;;;;;;;;;4957240;28;20075;-78
2023/03/23 07:48:50;;;;;;;23.70;6.28;;;;;;;;;;4944149;28;20105;-79
2023/03/23 07:51:17;;;;;;;19.73;5.32;;;;;;;;;;4941653;29;20380;-79
2023/03/23 07:53:47;;;;;;;28.17;5.40;;;;;;;;;;4968724;28;20126;-79
2023/03/23 07:56:14;;;;;;;22.80;5.45;;;;;;;;;;4937702;29;20410;-79
2023/03/23 07:58:41;;;;;;;17.88;5.13;;;;;;;;;;4938175;29;20055;-79
2023/03/23 08:01:07;;;;;;;23.00;5.03;;;;;;;;;;4939548;29;20051;-78
2023/03/23 08:03:34;;;;;;;21.50;5.55;;;;;;;;;;4948185;29;20043;-79
2023/03/23 08:06:00;;;;;;;22.65;5.78;;;;;;;;;;4990938;28;20066;-79
2023/03/23 08:08:26;;;;;;;20.70;4.72;;;;;;;;;;4958192;28;20051;-79
2023/03/23 08:10:52;;;;;;;24.35;5.57;;;;;;;;;;4958025;28;20102;-79
2023/03/23 08:13:21;;;;;;;19.85;5.80;;;;;;;;;;4957386;28;20047;-79
2023/03/23 08:15:47;;;;;;;25.58;5.22;;;;;;;;;;4957819;28;20122;-79
2023/03/23 08:18:13;;;;;;;20.55;5.45;;;;;;;;;;4957268;28;20089;-79
2023/03/23 08:20:40;;;;;;;22.90;5.88;;;;;;;;;;4955127;28;20043;-79
2023/03/23 08:23:07;;;;;;;24.00;5.90;;;;;;;;;;4955968;29;20062;-79
2023/03/23 08:25:33;;;;;;;24.35;5.53;;;;;;;;;;4958274;28;20138;-79
2023/03/23 08:28:01;;;;;;;27.08;5.65;;;;;;;;;;4957074;28;20082;-79
2023/03/23 08:30:29;;;;;;;22.00;4.93;;;;;;;;;;4957649;28;20062;-79
2023/03/23 08:32:56;;;;;;;25.10;5.43;;;;;;;;;;4957062;28;20446;-79
2023/03/23 08:35:23;;;;;;;23.77;5.38;;;;;;;;;;4956501;28;20043;-79
2023/03/23 08:37:54;;;;;;;29.35;5.30;;;;;;;;;;4958151;28;20487;-79
2023/03/23 08:40:21;;;;;;;23.90;5.35;;;;;;;;;;4957893;28;20460;-79
2023/03/23 08:42:48;;;;;;;21.48;5.25;;;;;;;;;;4957927;28;20061;-79
2023/03/23 08:45:16;;;;;;;18.10;5.07;;;;;;;;;;4958287;28;20058;-79
2023/03/23 08:47:42;;;;;;;18.65;4.88;;;;;;;;;;4958740;28;20126;-79
2023/03/23 08:50:10;;;;;;;19.27;4.32;;;;;;;;;;4957107;28;20044;-79
2023/03/23 08:52:37;;;;;;;17.42;4.30;;;;;;;;;;4961515;28;20043;-79
2023/03/23 08:55:03;;;;;;;16.95;4.70;;;;;;;;;;4961456;28;20043;-79
2023/03/23 08:57:29;;;;;;;16.63;4.47;;;;;;;;;;4956034;28;20043;-79
2023/03/23 08:59:59;;;;;;;22.00;5.28;;;;;;;;;;4957452;28;20130;-78
2023/03/23 09:02:26;;;;;;;20.25;4.85;;;;;;;;;;4957059;28;20102;-79
2023/03/23 09:04:52;;;;;;;20.65;5.03;;;;;;;;;;4957215;28;20459;-79
2023/03/23 09:07:19;;;;;;;17.80;5.55;;;;;;;;;;4958436;28;20049;-79
2023/03/23 09:09:45;;;;;;;19.40;5.70;;;;;;;;;;4944138;28;20051;-79
2023/03/23 09:12:12;;;;;;;22.70;5.95;;;;;;;;;;4938648;29;20043;-79
2023/03/23 09:14:38;;;;;;;19.00;5.47;;;;;;;;;;4956534;28;20058;-79
2023/03/23 09:17:05;;;;;;;21.25;4.63;;;;;;;;;;4944587;29;20035;-79
2023/03/23 09:19:33;;;;;;;24.35;4.95;;;;;;;;;;4959163;28;20051;-79
2023/03/23 09:22:00;;;;;;;17.85;5.15;;;;;;;;;;4959289;28;20055;-79
2023/03/23 09:24:26;;;;;;;18.48;5.43;;;;;;;;;;4957535;28;20059;-79
2023/03/23 09:26:52;;;;;;;24.27;5.35;;;;;;;;;;4958929;28;20058;-79
2023/03/23 09:29:18;;;;;;;20.85;6.38;;;;;;;;;;4959845;28;20040;-79
2023/03/23 09:31:46;;;;;;;17.58;4.53;;;;;;;;;;4962472;28;20063;-79
2023/03/23 09:34:15;;;;;;;18.58;5.10;;;;;;;;;;4965407;28;20047;-80
2023/03/23 09:36:41;;;;;;;26.58;5.18;;;;;;;;;;4970473;28;20047;-79
2023/03/23 09:39:11;;;;;;;22.20;5.25;;;;;;;;;;4967343;28;20043;-79
2023/03/23 09:41:40;;;;;;;19.73;4.47;;;;;;;;;;4965659;28;20138;-79
2023/03/23 09:44:11;;;;;;;17.02;4.53;;;;;;;;;;4963526;28;20090;-79
2023/03/23 09:46:46;;;;;;;18.20;4.45;;;;;;;;;;4951019;28;20043;-79
2023/03/23 09:49:15;;;;;;;21.60;5.15;;;;;;;;;;4954057;29;20118;-80
2023/03/23 09:51:42;;;;;;;19.20;4.25;;;;;;;;;;4959240;28;20091;-81
